Rupert, Georgia
Current Conditions -  °F | °C
As of 4:55 PM on Tuesday 25 Nov 2014 (Local Time) from KACJ Reporting Station
Light Rain Light Rain  
Wind Chill: 50°   Ceiling: 3900
Heat Index: 50°   Visibility: 10mi
Dew Point: 46°   Wind: 5mph
Humidity: 87%   Direction: 330°NNW
Pressure: 30.05"   Gusts: NA
Location:  32.45°N, 84.28°W
Report Text: KACJ 252155Z AUTO 33004KT 10SM -RA BKN039 BKN075 OVC090 10/08 A3005 RMK AO2
Loading
Personal Weather Stations






























Interactive Weather Map New forecast layout! Learn more

10-Day Weather Forecast

Advertisements
Track Severe Weather on mobile